createdAt,value
2022-10-13T05:31:40.426Z,97413.28
2022-10-13T05:33:43.987Z,97413.38
2022-10-13T05:35:46.639Z,97418.28
2022-10-13T05:37:49.681Z,97417.63
2022-10-13T05:39:52.455Z,97410.47
2022-10-13T05:41:55.295Z,97408.06
2022-10-13T05:44:02.447Z,97403.44
2022-10-13T05:46:05.525Z,97404.97
2022-10-13T05:48:09.575Z,97404.06
2022-10-13T05:50:12.297Z,97408.53
2022-10-13T05:52:17.892Z,97412.16
2022-10-13T05:54:30.011Z,97415.66
2022-10-13T05:56:39.795Z,97406.81
2022-10-13T05:58:50.579Z,97406.81
2022-10-13T06:00:55.055Z,97408.53
2022-10-13T06:03:05.118Z,97409.72
2022-10-13T06:05:15.275Z,97395.88
2022-10-13T06:07:18.577Z,97403.09
2022-10-13T06:09:21.632Z,97396.91
2022-10-13T06:11:24.407Z,97402.84
2022-10-13T06:13:27.192Z,97401.81
2022-10-13T06:15:30.159Z,97398.06
2022-10-13T06:17:32.742Z,97401.56
2022-10-13T06:19:35.606Z,97401.81
2022-10-13T06:21:40.021Z,97407.75
2022-10-13T06:23:42.735Z,97405.06
2022-10-13T06:25:50.031Z,97415.34
2022-10-13T06:27:52.801Z,97425.59
2022-10-13T06:29:55.706Z,97421.28
2022-10-13T06:31:58.460Z,97419.19
2022-10-13T06:34:01.490Z,97421.28
2022-10-13T06:36:05.078Z,97420.69
2022-10-13T06:38:09.819Z,97413.72
2022-10-13T06:40:13.298Z,97415.91
2022-10-13T06:42:16.294Z,97405.56
2022-10-13T06:44:20.038Z,97408.81
2022-10-13T06:46:22.797Z,97407.56
2022-10-13T06:48:25.906Z,97419.44
2022-10-13T06:50:29.648Z,97414.06
2022-10-13T06:52:34.990Z,97405.69
2022-10-13T06:54:39.060Z,97408.13
2022-10-13T06:56:41.815Z,97407.06
2022-10-13T06:58:44.713Z,97411.97
2022-10-13T07:00:47.531Z,97410.34
2022-10-13T07:02:52.093Z,97408.25
2022-10-13T07:04:54.931Z,97416.84
2022-10-13T07:06:57.875Z,97415.81
2022-10-13T07:09:03.496Z,97409.44
2022-10-13T07:11:15.958Z,97412.69
2022-10-13T07:13:19.351Z,97414.31
2022-10-13T07:15:24.730Z,97413.72
2022-10-13T07:17:27.664Z,97411.88
2022-10-13T07:19:30.449Z,97413.50
2022-10-13T07:21:33.408Z,97408.94
2022-10-13T07:23:36.338Z,97403.59
2022-10-13T07:25:39.224Z,97402.53
2022-10-13T07:27:44.302Z,97402.53
2022-10-13T07:29:47.216Z,97404.16
2022-10-13T07:31:49.973Z,97398.81
2022-10-13T07:33:52.839Z,97401.00
2022-10-13T07:35:55.604Z,97406.94
2022-10-13T07:37:58.782Z,97408.63
2022-10-13T07:40:01.591Z,97399.38
2022-10-13T07:42:04.986Z,97400.19
2022-10-13T07:44:09.195Z,97398.56
2022-10-13T07:46:14.025Z,97396.13
2022-10-13T07:48:16.813Z,97406.84
2022-10-13T07:50:19.803Z,97403.94
2022-10-13T07:52:23.556Z,97402.88
2022-10-13T07:54:27.588Z,97400.19
2022-10-13T07:56:30.684Z,97402.66
2022-10-13T07:58:37.652Z,97401.38
2022-10-13T08:00:42.167Z,97400.09
2022-10-13T08:02:45.245Z,97404.97
2022-10-13T08:04:48.676Z,97405.56
2022-10-13T08:06:54.030Z,97394.38
2022-10-13T08:08:58.030Z,97400.66
2022-10-13T08:11:02.546Z,97396.13
2022-10-13T08:13:05.434Z,97389.94
2022-10-13T08:15:09.567Z,97397.75
2022-10-13T08:17:13.738Z,97391.69
2022-10-13T08:19:17.819Z,97397.63
2022-10-13T08:21:45.771Z,97405.91
2022-10-13T08:23:47.207Z,97399.50
2022-10-13T08:25:51.138Z,97410.22
2022-10-13T08:27:58.202Z,97409.19
2022-10-13T08:30:03.333Z,97415.34
2022-10-13T08:32:06.184Z,97420.25
2022-10-13T08:34:12.055Z,97410.34
2022-10-13T08:36:15.348Z,97408.50
2022-10-13T08:38:18.308Z,97403.94
2022-10-13T08:40:23.183Z,97408.81
2022-10-13T08:42:26.316Z,97411.06
2022-10-13T08:47:05.047Z,97401.16
2022-10-13T08:49:08.445Z,97401.97
2022-10-13T08:51:16.333Z,97403.59
2022-10-13T08:53:27.320Z,97396.94
2022-10-13T08:55:34.341Z,97380.03
2022-10-13T08:57:39.528Z,97376.53
2022-10-13T08:59:42.461Z,97382.47
2022-10-13T09:01:49.004Z,97372.53
2022-10-13T09:03:55.313Z,97377.34
2022-10-13T09:06:06.744Z,97391.81
2022-10-13T09:08:17.621Z,97390.75
2022-10-13T09:10:20.469Z,97402.63
2022-10-13T09:12:25.270Z,97398.44
2022-10-13T09:14:30.476Z,97395.84
2022-10-13T09:16:37.568Z,97396.22
2022-10-13T09:18:40.631Z,97404.81
2022-10-13T09:20:43.729Z,97396.78
2022-10-13T09:23:02.226Z,97399.47
2022-10-13T09:25:18.903Z,97399.47
2022-10-13T09:27:22.420Z,97404.59
2022-10-13T09:29:27.911Z,97400.84
2022-10-13T09:31:33.123Z,97396.06
2022-10-13T09:33:38.214Z,97399.31
2022-10-13T09:35:42.878Z,97406.31
2022-10-13T09:37:45.632Z,97401.19
2022-10-13T09:40:00.340Z,97408.91
2022-10-13T09:42:27.963Z,97406.13
2022-10-13T09:44:33.218Z,97409.84
2022-10-13T09:46:40.284Z,97402.38
2022-10-13T09:48:46.041Z,97396.53
2022-10-13T09:50:52.972Z,97393.38
2022-10-13T09:53:17.254Z,97403.63
2022-10-13T09:55:32.804Z,97402.59
2022-10-13T09:57:44.673Z,97392.81
2022-10-13T09:59:50.914Z,97393.28
2022-10-13T10:01:57.243Z,97399.72
2022-10-13T10:04:00.835Z,97394.34
2022-10-13T10:06:07.014Z,97386.63
2022-10-13T10:08:15.993Z,97389.06
2022-10-13T10:10:31.102Z,97381.59
2022-10-13T10:12:38.244Z,97381.81
2022-10-13T10:14:42.459Z,97366.31
2022-10-13T10:16:51.209Z,97370.59
2022-10-13T10:19:01.224Z,97366.53
2022-10-13T10:21:09.822Z,97369.38
2022-10-13T10:23:18.702Z,97368.22
2022-10-13T10:25:33.060Z,97366.81
2022-10-13T10:27:43.706Z,97365.75
2022-10-13T10:29:54.792Z,97361.22
2022-10-13T10:32:13.260Z,97356.91
2022-10-13T10:34:32.398Z,97352.91
2022-10-13T10:36:42.875Z,97362.72
2022-10-13T10:38:51.512Z,97356.06
2022-10-13T10:41:01.004Z,97356.38
2022-10-13T10:43:41.265Z,97352.44
2022-10-13T10:45:49.648Z,97352.28
2022-10-13T10:47:57.668Z,97337.34
2022-10-13T10:50:04.302Z,97339.84
2022-10-13T10:52:09.687Z,97347.22
2022-10-13T10:54:33.530Z,97348.34
2022-10-13T10:56:39.559Z,97348.91
2022-10-13T10:58:50.832Z,97344.59
2022-10-13T11:01:04.313Z,97339.56
2022-10-13T11:03:19.379Z,97330.22
2022-10-13T11:05:22.770Z,97335.91
2022-10-13T11:07:57.842Z,97331.59
2022-10-13T11:10:22.188Z,97342.41
2022-10-13T11:12:25.525Z,97339.50
2022-10-13T11:14:31.163Z,97334.13
2022-10-13T11:16:40.024Z,97335.75
2022-10-13T11:19:06.573Z,97336.81
2022-10-13T11:21:09.391Z,97341.38
2022-10-13T11:23:33.196Z,97334.13
2022-10-13T11:25:39.448Z,97324.53
2022-10-13T11:27:45.916Z,97325.13
2022-10-13T11:29:57.982Z,97320.09
2022-10-13T11:32:04.652Z,97319.03
2022-10-13T11:34:28.443Z,97318.22
2022-10-13T11:36:40.473Z,97312.84
2022-10-13T11:39:00.380Z,97309.34
2022-10-13T11:41:17.860Z,97296.97
2022-10-13T11:43:34.251Z,97293.22
2022-10-13T11:45:49.903Z,97283.56
2022-10-13T11:48:38.449Z,97279.56
2022-10-13T11:50:48.425Z,97286.56
2022-10-13T11:53:07.440Z,97294.41
2022-10-13T11:55:15.621Z,97288.78
2022-10-13T11:57:20.589Z,97287.38
2022-10-13T11:59:26.851Z,97284.13
2022-10-13T12:01:30.178Z,97284.94
2022-10-13T12:03:36.551Z,97267.19
2022-10-13T12:05:39.390Z,97264.25
2022-10-13T12:07:43.899Z,97265.06
2022-10-13T12:09:52.866Z,97269.78
2022-10-13T12:12:02.170Z,97275.16
2022-10-13T12:14:08.466Z,97278.44
2022-10-13T12:16:14.653Z,97271.75
2022-10-13T12:18:24.587Z,97266.69
2022-10-13T12:20:31.346Z,97266.22
2022-10-13T12:22:39.342Z,97260.59
2022-10-13T12:24:43.382Z,97250.13
2022-10-13T12:26:46.118Z,97246.94
2022-10-13T12:28:52.918Z,97237.25
2022-10-13T12:30:58.807Z,97230.00
2022-10-13T12:33:01.686Z,97220.88
2022-10-13T12:35:20.050Z,97213.13
2022-10-13T12:37:30.640Z,97216.63
2022-10-13T12:39:39.342Z,97208.25
2022-10-13T12:41:45.363Z,97214.94
2022-10-13T12:43:49.377Z,97216.31
2022-10-13T12:45:52.451Z,97216.88
2022-10-13T12:47:56.106Z,97224.69
2022-10-13T12:50:28.552Z,97214.75
2022-10-13T12:52:35.705Z,97220.13
2022-10-13T12:54:40.092Z,97209.88
2022-10-13T12:56:43.966Z,97202.84
2022-10-13T12:58:46.711Z,97209.25
2022-10-13T13:00:59.187Z,97216.25
2022-10-13T13:03:04.156Z,97220.56
2022-10-13T13:05:31.880Z,97230.81
2022-10-13T13:07:38.180Z,97234.31
2022-10-13T13:09:41.326Z,97226.50
2022-10-13T13:11:44.135Z,97228.94
2022-10-13T13:13:47.088Z,97232.13
2022-10-13T13:15:50.776Z,97234.81
2022-10-13T13:17:59.031Z,97224.56
2022-10-13T13:20:02.152Z,97233.44
2022-10-13T13:22:06.115Z,97231.56
2022-10-13T13:24:21.846Z,97229.69
2022-10-13T13:26:31.481Z,97230.81
2022-10-13T13:28:34.647Z,97223.56
2022-10-13T13:30:37.605Z,97219.00
2022-10-13T13:32:40.684Z,97217.44
2022-10-13T13:34:44.033Z,97213.72
2022-10-13T13:36:48.621Z,97211.03
2022-10-13T13:38:53.169Z,97205.06
2022-10-13T13:41:00.127Z,97203.19
2022-10-13T13:43:06.303Z,97207.19
2022-10-13T13:45:12.918Z,97206.13
2022-10-13T13:47:21.213Z,97190.84
2022-10-13T13:49:27.378Z,97190.03
2022-10-13T13:51:32.718Z,97174.41
2022-10-13T13:53:35.760Z,97180.59
2022-10-13T13:55:39.032Z,97173.09
2022-10-13T13:57:43.339Z,97172.28
2022-10-13T13:59:46.704Z,97163.16
2022-10-13T14:01:49.524Z,97159.41
2022-10-13T14:03:52.448Z,97155.09
2022-10-13T14:05:55.215Z,97164.22
2022-10-13T14:07:59.072Z,97161.53
2022-10-13T14:10:02.598Z,97162.09
2022-10-13T14:12:09.144Z,97170.97
2022-10-13T14:14:13.508Z,97169.34
2022-10-13T14:16:18.375Z,97163.72
2022-10-13T14:18:21.175Z,97162.09
2022-10-13T14:20:24.235Z,97163.16
2022-10-13T14:22:27.152Z,97156.97
2022-10-13T14:24:31.847Z,97164.22
2022-10-13T14:26:35.145Z,97170.09
2022-10-13T14:28:38.305Z,97160.41
2022-10-13T14:30:43.068Z,97152.09
2022-10-13T14:32:46.158Z,97150.50
2022-10-13T14:34:48.960Z,97155.84
2022-10-13T14:36:52.552Z,97156.94
2022-10-13T14:38:55.439Z,97148.88
2022-10-13T14:41:01.498Z,97147.00
2022-10-13T14:43:04.278Z,97141.63
2022-10-13T14:45:08.406Z,97137.31
2022-10-13T14:47:12.492Z,97135.69
2022-10-13T14:49:15.758Z,97138.13
2022-10-13T14:51:18.766Z,97137.06
2022-10-13T14:53:21.544Z,97143.50
2022-10-13T14:55:26.826Z,97144.31
2022-10-13T14:57:29.839Z,97138.13
2022-10-13T14:59:32.696Z,97145.38
2022-10-13T15:01:35.600Z,97154.25
2022-10-13T15:03:39.803Z,97158.81
2022-10-13T15:05:42.986Z,97154.25
2022-10-13T15:07:45.828Z,97145.38
2022-10-13T15:10:00.526Z,97142.69
2022-10-13T15:12:07.745Z,97145.38
2022-10-13T15:14:10.828Z,97142.69
2022-10-13T15:16:17.213Z,97143.75
2022-10-13T15:18:19.965Z,97140.00
2022-10-13T15:20:24.158Z,97141.06
2022-10-13T15:22:27.066Z,97149.13
2022-10-13T15:24:29.816Z,97144.81
2022-10-13T15:26:33.725Z,97139.66
2022-10-13T15:28:38.702Z,97141.53
2022-10-13T15:30:41.683Z,97142.59
2022-10-13T15:32:44.409Z,97144.47
2022-10-13T15:34:47.465Z,97137.22
2022-10-13T15:36:51.772Z,97143.66
2022-10-13T15:38:54.738Z,97138.53
2022-10-13T15:41:00.460Z,97158.16
2022-10-13T15:43:03.300Z,97143.34
2022-10-13T15:45:11.362Z,97140.66
2022-10-13T15:47:17.222Z,97145.22
2022-10-13T15:49:20.381Z,97147.09
2022-10-13T15:51:26.972Z,97159.69
2022-10-13T15:53:32.161Z,97147.09
2022-10-13T15:55:35.003Z,97150.00
2022-10-13T15:57:37.968Z,97160.75
2022-10-13T15:59:40.876Z,97152.13
2022-10-13T16:01:43.707Z,97150.47
2022-10-13T16:03:46.512Z,97148.84
2022-10-13T16:05:50.191Z,97147.22
2022-10-13T16:07:53.078Z,97148.28
2022-10-13T16:09:57.433Z,97146.66
2022-10-13T16:12:00.903Z,97153.91
2022-10-13T16:14:03.764Z,97153.09
2022-10-13T16:16:07.053Z,97156.84
2022-10-13T16:18:09.853Z,97156.84
2022-10-13T16:20:15.171Z,97154.41
2022-10-13T16:22:18.486Z,97161.41
2022-10-13T16:24:21.639Z,97156.03
2022-10-13T16:26:25.756Z,97160.59
2022-10-13T16:28:28.559Z,97157.34
2022-10-13T16:30:31.476Z,97152.19
2022-10-13T16:32:39.292Z,97154.88
2022-10-13T16:34:42.142Z,97154.06
2022-10-13T16:36:44.888Z,97159.44
2022-10-13T16:38:48.226Z,97162.38
2022-10-13T16:40:51.029Z,97160.75
2022-10-13T16:42:55.197Z,97157.25
2022-10-13T16:44:58.136Z,97156.44
2022-10-13T16:47:04.961Z,97155.63
2022-10-13T16:49:07.759Z,97155.63
2022-10-13T16:51:14.078Z,97149.44
2022-10-13T16:53:16.858Z,97151.31
2022-10-13T16:55:19.932Z,97162.06
2022-10-13T16:57:22.955Z,97162.06
2022-10-13T16:59:28.712Z,97162.06
2022-10-13T17:01:32.800Z,97159.38
2022-10-13T17:03:35.808Z,97166.63
2022-10-13T17:05:38.482Z,97174.66
2022-10-13T17:07:41.462Z,97172.78
2022-10-13T17:09:44.380Z,97171.97
2022-10-13T17:11:47.169Z,97178.97
2022-10-13T17:13:50.564Z,97171.16
2022-10-13T17:15:55.831Z,97172.78
2022-10-13T17:17:58.558Z,97171.16
2022-10-13T17:20:01.372Z,97171.16
2022-10-13T17:22:04.168Z,97165.00
2022-10-13T17:24:07.139Z,97162.56
2022-10-13T17:26:12.125Z,97166.06
2022-10-13T17:28:15.686Z,97162.56
2022-10-13T17:30:18.506Z,97171.66
2022-10-13T17:32:22.768Z,97166.31
2022-10-13T17:34:25.881Z,97161.75
2022-10-13T17:36:31.614Z,97164.69
2022-10-13T17:38:35.011Z,97165.72
2022-10-13T17:40:37.891Z,97170.25
2022-10-13T17:42:40.622Z,97172.13
2022-10-13T17:44:43.753Z,97179.63
2022-10-13T17:46:46.747Z,97180.69
2022-10-13T17:48:51.643Z,97180.13
2022-10-13T17:50:54.372Z,97183.88
2022-10-13T17:52:57.539Z,97187.03
2022-10-13T17:55:00.660Z,97188.66
2022-10-13T17:57:03.359Z,97194.25
2022-10-13T17:59:06.108Z,97196.38
2022-10-13T18:01:13.385Z,97191.25
2022-10-13T18:03:17.821Z,97182.38
2022-10-13T18:05:22.021Z,97186.13
2022-10-13T18:07:24.739Z,97186.13
2022-10-13T18:09:27.469Z,97188.81
2022-10-13T18:11:30.505Z,97185.31
2022-10-13T18:13:33.710Z,97183.44
2022-10-13T18:15:37.387Z,97188.81
2022-10-13T18:17:41.327Z,97179.16
2022-10-13T18:19:44.053Z,97179.94
2022-10-13T18:21:48.312Z,97185.31
2022-10-13T18:23:51.002Z,97181.00
2022-10-13T18:25:53.746Z,97182.63
2022-10-13T18:27:56.410Z,97185.31
2022-10-13T18:29:59.291Z,97183.69
2022-10-13T18:32:02.258Z,97178.34
2022-10-13T18:34:07.640Z,97180.44
2022-10-13T18:36:16.185Z,97185.56
2022-10-13T18:38:20.278Z,97179.38
2022-10-13T18:40:22.954Z,97187.44
2022-10-13T18:42:26.895Z,97172.97
2022-10-13T18:44:29.691Z,97179.16
2022-10-13T18:46:32.739Z,97188.00
2022-10-13T18:48:35.957Z,97179.38
2022-10-13T18:50:39.143Z,97182.06
2022-10-13T18:52:41.914Z,97182.06
2022-10-13T18:54:46.281Z,97186.63
2022-10-13T18:56:50.957Z,97180.19
2022-10-13T18:58:59.444Z,97189.06
2022-10-13T19:01:03.793Z,97187.19
2022-10-13T19:03:06.812Z,97188.81
2022-10-13T19:05:10.474Z,97179.94
2022-10-13T19:07:13.188Z,97188.00
2022-10-13T19:09:17.639Z,97192.31
2022-10-13T19:11:22.555Z,97190.19
2022-10-13T19:13:26.576Z,97191.25
2022-10-13T19:15:29.550Z,97191.00
2022-10-13T19:17:32.283Z,97191.81
2022-10-13T19:19:35.036Z,97183.75
2022-10-13T19:21:38.357Z,97196.38
2022-10-13T19:23:41.520Z,97195.00
2022-10-13T19:25:44.822Z,97190.69
2022-10-13T19:27:48.974Z,97192.31
2022-10-13T19:29:52.715Z,97193.38
2022-10-13T19:31:55.455Z,97191.50
2022-10-13T19:34:00.014Z,97192.31
2022-10-13T19:36:02.803Z,97187.75
2022-10-13T19:38:05.463Z,97193.94
2022-10-13T19:40:09.204Z,97192.06
2022-10-13T19:42:12.023Z,97193.94
2022-10-13T19:44:17.436Z,97192.88
2022-10-13T19:46:20.408Z,97193.44
2022-10-13T19:48:23.892Z,97191.81
2022-10-13T19:50:26.811Z,97191.81
2022-10-13T19:52:29.756Z,97191.81
2022-10-13T19:54:35.951Z,97182.97
2022-10-13T19:56:39.452Z,97188.31
2022-10-13T19:58:47.351Z,97190.19
2022-10-13T20:00:52.709Z,97177.84
2022-10-13T20:02:55.600Z,97181.34
2022-10-13T20:04:58.555Z,97175.97
2022-10-13T20:07:01.987Z,97176.78
2022-10-13T20:09:05.683Z,97184.81
2022-10-13T20:11:09.141Z,97179.72
2022-10-13T20:13:14.504Z,97182.38
2022-10-13T20:15:17.335Z,97180.75
2022-10-13T20:17:26.953Z,97179.94
2022-10-13T20:19:32.003Z,97183.69
2022-10-13T20:21:36.587Z,97185.31
2022-10-13T20:23:40.582Z,97184.25
2022-10-13T20:25:43.265Z,97184.25
2022-10-13T20:27:46.013Z,97190.44
2022-10-13T20:29:48.770Z,97190.69
2022-10-13T20:31:51.607Z,97186.94
2022-10-13T20:33:56.915Z,97192.31
2022-10-13T20:36:00.733Z,97187.19
2022-10-13T20:38:03.415Z,97182.06
2022-10-13T20:40:06.859Z,97191.19
2022-10-13T20:42:10.790Z,97193.88
2022-10-13T20:44:13.697Z,97191.19
2022-10-13T20:46:18.044Z,97194.69
2022-10-13T20:48:20.754Z,97191.19
2022-10-13T20:50:25.010Z,97194.94
2022-10-13T20:52:27.648Z,97190.63
2022-10-13T20:54:30.509Z,97187.34
2022-10-13T20:56:33.346Z,97191.66
2022-10-13T20:58:37.609Z,97193.75
2022-10-13T21:00:44.080Z,97190.03
2022-10-13T21:02:47.615Z,97194.81
